My Meet Scores
Georgie Smith, Arena Gymnastics Inc. - MyMeetScores.com
Top100 | Top Teams | Upcoming Meets | Completed Meets | Latest | Add Scores | Help| Support | Bookmark and Share

Georgie Smith, Arena Gymnastics Inc.
Personal Bests
LevelVault BarsBeamFloorAA
39.5509.050 8.9009.30036.400
49.1759.075 9.1509.27536.050
59.4008.900 9.5509.00036.375
69.3009.325 9.4509.50037.000
79.3508.900 9.2009.47536.250
AllLevels8.9008.500 9.1008.67535.175
Meet Scores
Date Meet Team Session Level Division Vault Bars Beam Floor AA
2019-03-15 2019 Connecticut Level 7-10 State Championships Arena Gymnastics Inc. 2 7 Sr B 9.000 21T 7.475 26 9.025 6 9.375 7 34.875 13T
2019-02-22 2019 February Flip Invitational Arena Gymnastics Inc. 9 7 14 yr old 9.150 1 8.525 5 0.000 7T 9.475 1 27.150 7
2019-02-08 Great Destinations - Maryland Arena Gymnastics Inc. 05B 7 Senior 9.050 14T 7.650 11 8.900 7 8.900 17 34.500 13
2019-01-18 DGS Northeast Invite Arena Gymnastics Inc. 2B 7 Sr A 8.900 5 8.150 6 8.650 3 9.300 1 35.000 2T
2019-01-12 Daytona Beach Classic 2019 Arena Gymnastics Inc. 2 7 JR C 8.650 10 8.000 7 9.200 3 8.625 7 34.475 8
2018-12-15 2018 Holiday Classic Arena Gymnastics Inc. 2 7 SR 8.400 9 7.350 4 8.500 3T 9.100 4T 33.350 3
2018-11-30 Rhode Island Invitational Arena Gymnastics Inc. GF4 7 senior 8.750 2 8.450 3 8.800 2 8.800 1 34.800 1
2018-03-17 2018 Connecticut Levels 7-10 State Championships Arena Gymnastics Inc. 3 7 Sr. A 8.925 30 7.500 32T 8.800 26T 8.975 21T 34.200 27
2018-02-23 2018 February Flip Invitational Arena Gymnastics Inc. 11 7 14 up 9.350 15T 8.600 14 9.000 18T 9.300 8T 36.250 15
2018-02-16 GymQuarters Mardi Gras Invitational Arena Gymnastics Inc. 5 7 All Ages 8.900 39T 8.550 53T 8.850 44 9.000 35T 35.300 47T
2018-01-19 Kinetic Kids Invitational Arena Gymnastics Inc. 7 7 Older 9.250 4 8.900 2 7.700 8 9.350 2 35.200 6
2017-11-30 Rhode Island Invitational Arena Gymnastics Inc. GF1 7 Senior 8.500 9 7.650 3T 8.600 6T 8.700 7 33.450 6
2017-03-25 2017 Connecticut Level 6 Championships Arena Gymnastics Inc. 6 6 Sr A 9.050 3 8.450 6 9.450 2 9.500 1T 36.450 3
2017-03-02 2017 Holiday Costume Cup Arena Gymnastics Inc. 6 6 Older 9.300 4 8.600 3 9.150 4 9.150 5 36.200 3
2017-02-23 2017 February Flip Invitational Arena Gymnastics Inc. 8 6 12 Yrs 9.075 8 9.325 7T 9.425 8 9.175 7 37.000 6
2017-02-04 2017 Connecticut Level 4 & 5 State Meets Arena Gymnastics Inc. 5 5 12 B 9.400 1 8.850 2 8.550 9 8.450 6T 35.250 5
2016-12-02 Rhode Island Invitational Arena Gymnastics Inc. SU2 5 Senior 9.375 4 8.900 3T 8.725 7 8.575 9 35.575 5
2016-11-18 2016 Muriel Grossfeld Invitational Arena Gymnastics Inc. 6 5 Senior 9.375 1T 8.600 6T 9.400 1 9.000 3 36.375 2
2016-11-05 2016 Connecticut Judges Cup Arena Gymnastics Inc. 4 AllLevels AllAges 8.900 23T 8.500 17T 9.100 8T 8.675 16 35.175 10
2016-02-20 2016 Connecticut Level 4 And 5 State Meets Chelsea Piers Connecticut 5 5 11 B 9.000 7T 8.750 8 8.400 7 8.650 9 34.800 8T
2016-02-13 Chelsea Piers Winter Challenge Chelsea Piers Connecticut CT8 5 SR 8.950 10 8.550 12 9.550 5T 8.675 7 35.725 9
2016-01-28 2016 American Invitational Chelsea Piers Connecticut 6A 5 Junior 8.900 7 8.700 10 9.150 4 9.000 10 35.750 9
2016-01-15 DGS Invitational Chelsea Piers Connecticut B10 5 11 yrs. 8.650 6T 8.450 10T 7.900 14 8.650 12T 33.650 13
2016-01-08 Silvia Mitova Invitational Chelsea Piers Connecticut 8 5 Sr A 8.850 8T 8.325 11 8.300 18T 8.825 13 34.300 15
2015-12-04 Rhode Island Invitational Chelsea Piers Connecticut SU3 5 Junior 0.000 13 8.750 4T 9.150 4 8.475 10 35.150 6
2015-11-21 2015 Muriel Grossfeld Invitational Chelsea Piers Connecticut 4 5 Junior 8.550 9T 7.700 11 7.500 14 8.450 10 32.200 13
2015-03-05 Holiday Costume Cup 2015 Chelsea Piers Connecticut 4 4 Younger 8.600 3T 8.450 4 8.250 7 9.275 3 34.575 2T
2015-02-14 Chelsea Piers Winter Challenge Chelsea Piers Connecticut S10 4 Sr B 8.350 6 9.075 5 9.025 7 9.150 4 35.600 5
2015-01-16 Abie Grossfeld Invitational Chelsea Piers Connecticut 4 4 Older 9.100 6T 8.600 4 9.150 2 9.200 2 36.050 2
2015-01-09 Hudson Valley Winter Classic Chelsea Piers Connecticut 7 4 Sr A 9.175 1 8.875 2 8.975 6 9.025 4 36.050 2
2014-12-12 Rhode Island Invitational Chelsea Piers Connecticut SS4 4 Junior 8.575 4 8.000 9 8.575 8 8.550 5 33.700 7
2014-12-06 Yellow Jackets Holiday Invitational Chelsea Piers Connecticut 5 4 Senior 8.900 4 8.050 7 9.000 5 8.600 8T 34.550 6
2014-11-22 2014 Muriel Grossfeld Invitational Chelsea Piers Connecticut 1 4 Junior 8.900 1 7.050 15 8.600 11 8.850 4 33.400 10
2014-03-29 2014 Connecticut Level 3, 6 States Chelsea Piers Connecticut 4 3 All Ages 9.550 12T 9.050 17T 8.750 18T 8.250 46T 35.600 18
2014-03-06 Holiday Costume Cup 2014 Chelsea Piers Connecticut 7 3 Sr A 9.225 3 9.000 4T 8.650 6 8.950 7 35.825 4
2014-02-15 Chelsea Piers Winter Challenge Chelsea Piers Connecticut 4 3 Div D 9.250 7T 8.950 11T 8.900 12 9.300 14T 36.400 11
2014-01-25 Manhattan Classic Chelsea Piers Connecticut C2 3 Sr A 9.400 2 8.200 12 8.650 7T 8.600 13 34.850 7
Get your scores on
a t-shirt, pin, or hoodie

www.lazysuits.com